sensor_id;sensor_type;location;lat;lon;timestamp;temperature;humidity
43808;DHT22;29438;50.664;10.098;2023-02-02T00:01:22;1.80;92.10
43808;DHT22;29438;50.664;10.098;2023-02-02T00:03:48;1.90;92.10
43808;DHT22;29438;50.664;10.098;2023-02-02T00:06:18;1.80;92.00
43808;DHT22;29438;50.664;10.098;2023-02-02T00:08:44;1.90;92.10
43808;DHT22;29438;50.664;10.098;2023-02-02T00:11:10;2.00;92.20
43808;DHT22;29438;50.664;10.098;2023-02-02T00:13:36;2.00;92.30
43808;DHT22;29438;50.664;10.098;2023-02-02T00:16:34;2.00;92.30
43808;DHT22;29438;50.664;10.098;2023-02-02T00:21:34;2.00;92.40
43808;DHT22;29438;50.664;10.098;2023-02-02T00:24:00;2.10;92.30
43808;DHT22;29438;50.664;10.098;2023-02-02T00:26:26;2.00;92.10
43808;DHT22;29438;50.664;10.098;2023-02-02T00:28:51;2.00;92.00
43808;DHT22;29438;50.664;10.098;2023-02-02T00:31:17;2.10;91.80
43808;DHT22;29438;50.664;10.098;2023-02-02T00:33:44;2.00;91.70
43808;DHT22;29438;50.664;10.098;2023-02-02T00:36:10;1.80;91.70
43808;DHT22;29438;50.664;10.098;2023-02-02T00:38:35;1.70;92.20
43808;DHT22;29438;50.664;10.098;2023-02-02T00:41:02;1.70;92.50
43808;DHT22;29438;50.664;10.098;2023-02-02T00:43:28;1.70;92.70
43808;DHT22;29438;50.664;10.098;2023-02-02T00:45:53;1.80;92.70
43808;DHT22;29438;50.664;10.098;2023-02-02T00:48:19;1.80;92.60
43808;DHT22;29438;50.664;10.098;2023-02-02T00:50:44;1.80;92.70
43808;DHT22;29438;50.664;10.098;2023-02-02T00:53:10;1.80;92.80
43808;DHT22;29438;50.664;10.098;2023-02-02T00:55:35;1.80;92.90
43808;DHT22;29438;50.664;10.098;2023-02-02T00:58:01;1.70;92.80
43808;DHT22;29438;50.664;10.098;2023-02-02T01:00:26;1.70;92.80
43808;DHT22;29438;50.664;10.098;2023-02-02T01:02:53;1.80;92.70
43808;DHT22;29438;50.664;10.098;2023-02-02T01:05:19;1.80;92.50
43808;DHT22;29438;50.664;10.098;2023-02-02T01:07:45;1.80;92.40
43808;DHT22;29438;50.664;10.098;2023-02-02T01:10:16;1.80;92.30
43808;DHT22;29438;50.664;10.098;2023-02-02T01:12:43;1.80;92.20
43808;DHT22;29438;50.664;10.098;2023-02-02T01:15:09;1.80;92.00
43808;DHT22;29438;50.664;10.098;2023-02-02T01:17:35;1.80;92.10
43808;DHT22;29438;50.664;10.098;2023-02-02T01:20:01;1.80;92.30
43808;DHT22;29438;50.664;10.098;2023-02-02T01:22:26;1.80;92.40
43808;DHT22;29438;50.664;10.098;2023-02-02T01:24:52;1.80;92.30
43808;DHT22;29438;50.664;10.098;2023-02-02T01:27:18;1.80;92.30
43808;DHT22;29438;50.664;10.098;2023-02-02T01:29:43;1.70;92.40
43808;DHT22;29438;50.664;10.098;2023-02-02T01:32:09;1.60;92.60
43808;DHT22;29438;50.664;10.098;2023-02-02T01:34:35;1.60;92.70
43808;DHT22;29438;50.664;10.098;2023-02-02T01:37:04;1.50;92.70
43808;DHT22;29438;50.664;10.098;2023-02-02T01:39:30;1.50;92.80
43808;DHT22;29438;50.664;10.098;2023-02-02T01:41:55;1.50;92.80
43808;DHT22;29438;50.664;10.098;2023-02-02T01:45:40;1.40;92.90
43808;DHT22;29438;50.664;10.098;2023-02-02T01:47:46;1.40;92.80
43808;DHT22;29438;50.664;10.098;2023-02-02T01:50:15;1.30;92.70
43808;DHT22;29438;50.664;10.098;2023-02-02T01:52:44;1.20;93.00
43808;DHT22;29438;50.664;10.098;2023-02-02T01:55:13;1.30;93.20
43808;DHT22;29438;50.664;10.098;2023-02-02T01:57:45;1.40;93.10
43808;DHT22;29438;50.664;10.098;2023-02-02T02:00:13;1.40;93.00
43808;DHT22;29438;50.664;10.098;2023-02-02T02:02:45;1.40;93.00
43808;DHT22;29438;50.664;10.098;2023-02-02T02:05:15;1.50;92.90
43808;DHT22;29438;50.664;10.098;2023-02-02T02:07:44;1.50;92.70
43808;DHT22;29438;50.664;10.098;2023-02-02T02:10:11;1.50;92.40
43808;DHT22;29438;50.664;10.098;2023-02-02T02:12:36;1.50;92.30
43808;DHT22;29438;50.664;10.098;2023-02-02T02:15:02;1.50;92.30
43808;DHT22;29438;50.664;10.098;2023-02-02T02:20:43;1.60;92.20
43808;DHT22;29438;50.664;10.098;2023-02-02T02:23:57;1.70;92.20
43808;DHT22;29438;50.664;10.098;2023-02-02T02:32:17;1.70;92.00
43808;DHT22;29438;50.664;10.098;2023-02-02T02:35:08;1.80;92.00
43808;DHT22;29438;50.664;10.098;2023-02-02T02:37:56;1.70;92.10
43808;DHT22;29438;50.664;10.098;2023-02-02T02:40:39;1.80;92.20
43808;DHT22;29438;50.664;10.098;2023-02-02T02:43:21;1.80;92.20
43808;DHT22;29438;50.664;10.098;2023-02-02T02:45:49;1.80;92.30
43808;DHT22;29438;50.664;10.098;2023-02-02T02:48:15;1.80;92.20
43808;DHT22;29438;50.664;10.098;2023-02-02T02:50:40;1.80;92.30
43808;DHT22;29438;50.664;10.098;2023-02-02T02:53:15;1.80;92.30
43808;DHT22;29438;50.664;10.098;2023-02-02T02:56:05;1.80;92.30
43808;DHT22;29438;50.664;10.098;2023-02-02T03:01:35;1.80;92.40
43808;DHT22;29438;50.664;10.098;2023-02-02T03:04:11;1.80;92.40
43808;DHT22;29438;50.664;10.098;2023-02-02T03:06:48;1.80;92.50
43808;DHT22;29438;50.664;10.098;2023-02-02T03:09:20;1.80;92.60
43808;DHT22;29438;50.664;10.098;2023-02-02T03:11:46;1.80;92.50
43808;DHT22;29438;50.664;10.098;2023-02-02T03:14:11;1.80;92.60
43808;DHT22;29438;50.664;10.098;2023-02-02T03:16:37;1.80;92.50
43808;DHT22;29438;50.664;10.098;2023-02-02T03:19:05;1.90;92.50
43808;DHT22;29438;50.664;10.098;2023-02-02T03:21:31;1.90;92.50
43808;DHT22;29438;50.664;10.098;2023-02-02T03:23:57;1.90;92.40
43808;DHT22;29438;50.664;10.098;2023-02-02T03:26:22;1.90;92.50
43808;DHT22;29438;50.664;10.098;2023-02-02T03:28:50;1.90;92.40
43808;DHT22;29438;50.664;10.098;2023-02-02T03:31:16;1.90;92.40
43808;DHT22;29438;50.664;10.098;2023-02-02T03:33:42;1.90;92.40
43808;DHT22;29438;50.664;10.098;2023-02-02T03:36:08;2.00;92.40
43808;DHT22;29438;50.664;10.098;2023-02-02T03:38:34;2.00;92.60
43808;DHT22;29438;50.664;10.098;2023-02-02T03:40:59;1.90;92.60
43808;DHT22;29438;50.664;10.098;2023-02-02T03:43:25;2.00;92.70
43808;DHT22;29438;50.664;10.098;2023-02-02T03:45:58;1.90;92.80
43808;DHT22;29438;50.664;10.098;2023-02-02T03:48:25;1.90;92.80
43808;DHT22;29438;50.664;10.098;2023-02-02T03:50:51;2.00;93.00
43808;DHT22;29438;50.664;10.098;2023-02-02T03:53:16;2.00;93.00
43808;DHT22;29438;50.664;10.098;2023-02-02T03:55:42;2.00;93.00
43808;DHT22;29438;50.664;10.098;2023-02-02T03:58:07;2.00;93.10
43808;DHT22;29438;50.664;10.098;2023-02-02T04:00:33;2.00;93.20
43808;DHT22;29438;50.664;10.098;2023-02-02T04:02:58;2.00;93.10
43808;DHT22;29438;50.664;10.098;2023-02-02T04:05:24;2.00;93.10
43808;DHT22;29438;50.664;10.098;2023-02-02T04:07:50;2.00;93.20
43808;DHT22;29438;50.664;10.098;2023-02-02T04:10:17;2.00;93.20
43808;DHT22;29438;50.664;10.098;2023-02-02T04:12:42;2.10;93.30
43808;DHT22;29438;50.664;10.098;2023-02-02T04:15:08;2.00;93.30
43808;DHT22;29438;50.664;10.098;2023-02-02T04:17:34;2.10;93.30
43808;DHT22;29438;50.664;10.098;2023-02-02T04:20:01;2.00;93.40
43808;DHT22;29438;50.664;10.098;2023-02-02T04:22:26;2.00;93.40
43808;DHT22;29438;50.664;10.098;2023-02-02T04:24:52;2.00;93.50
43808;DHT22;29438;50.664;10.098;2023-02-02T04:27:18;2.00;93.50
43808;DHT22;29438;50.664;10.098;2023-02-02T04:29:43;2.10;93.60
43808;DHT22;29438;50.664;10.098;2023-02-02T04:32:09;2.10;93.60
43808;DHT22;29438;50.664;10.098;2023-02-02T04:34:34;2.10;93.60
43808;DHT22;29438;50.664;10.098;2023-02-02T04:37:00;2.00;93.60
43808;DHT22;29438;50.664;10.098;2023-02-02T04:39:25;2.10;93.70
43808;DHT22;29438;50.664;10.098;2023-02-02T04:41:51;2.00;93.80
43808;DHT22;29438;50.664;10.098;2023-02-02T04:44:17;2.10;93.80
43808;DHT22;29438;50.664;10.098;2023-02-02T04:46:43;2.10;93.80
43808;DHT22;29438;50.664;10.098;2023-02-02T04:49:09;2.10;93.90
43808;DHT22;29438;50.664;10.098;2023-02-02T04:51:36;2.10;94.00
43808;DHT22;29438;50.664;10.098;2023-02-02T04:54:03;2.10;94.00
43808;DHT22;29438;50.664;10.098;2023-02-02T04:56:28;2.10;94.00
43808;DHT22;29438;50.664;10.098;2023-02-02T04:58:54;2.10;94.10
43808;DHT22;29438;50.664;10.098;2023-02-02T05:01:21;2.10;94.10
43808;DHT22;29438;50.664;10.098;2023-02-02T05:03:47;2.10;94.10
43808;DHT22;29438;50.664;10.098;2023-02-02T05:06:13;2.10;94.10
43808;DHT22;29438;50.664;10.098;2023-02-02T05:08:39;2.20;94.20
43808;DHT22;29438;50.664;10.098;2023-02-02T05:11:09;2.20;94.20
43808;DHT22;29438;50.664;10.098;2023-02-02T05:13:34;2.20;94.30
43808;DHT22;29438;50.664;10.098;2023-02-02T05:16:00;2.20;94.20
43808;DHT22;29438;50.664;10.098;2023-02-02T05:18:25;2.20;94.20
43808;DHT22;29438;50.664;10.098;2023-02-02T05:20:51;2.20;94.20
43808;DHT22;29438;50.664;10.098;2023-02-02T05:23:17;2.20;94.20
43808;DHT22;29438;50.664;10.098;2023-02-02T05:25:43;2.20;94.30
43808;DHT22;29438;50.664;10.098;2023-02-02T05:28:09;2.10;94.30
43808;DHT22;29438;50.664;10.098;2023-02-02T05:30:37;2.20;94.30
43808;DHT22;29438;50.664;10.098;2023-02-02T05:33:02;2.10;94.30
43808;DHT22;29438;50.664;10.098;2023-02-02T05:35:28;2.10;94.30
43808;DHT22;29438;50.664;10.098;2023-02-02T05:37:53;2.10;94.40
43808;DHT22;29438;50.664;10.098;2023-02-02T05:40:19;2.10;94.30
43808;DHT22;29438;50.664;10.098;2023-02-02T05:42:47;2.10;94.30
43808;DHT22;29438;50.664;10.098;2023-02-02T05:45:12;2.00;94.30
43808;DHT22;29438;50.664;10.098;2023-02-02T05:47:38;2.00;94.40
43808;DHT22;29438;50.664;10.098;2023-02-02T05:50:03;2.00;94.40
43808;DHT22;29438;50.664;10.098;2023-02-02T05:52:32;2.00;94.40
43808;DHT22;29438;50.664;10.098;2023-02-02T05:54:58;2.00;94.40
43808;DHT22;29438;50.664;10.098;2023-02-02T05:57:24;2.00;94.40
43808;DHT22;29438;50.664;10.098;2023-02-02T05:59:50;2.00;94.40
43808;DHT22;29438;50.664;10.098;2023-02-02T06:02:15;2.00;94.40
43808;DHT22;29438;50.664;10.098;2023-02-02T06:04:40;2.00;94.40
43808;DHT22;29438;50.664;10.098;2023-02-02T06:07:06;2.00;94.40
43808;DHT22;29438;50.664;10.098;2023-02-02T06:09:31;2.00;94.40
43808;DHT22;29438;50.664;10.098;2023-02-02T06:11:57;2.00;94.40
43808;DHT22;29438;50.664;10.098;2023-02-02T06:14:22;2.00;94.40
43808;DHT22;29438;50.664;10.098;2023-02-02T06:16:48;2.00;94.40
43808;DHT22;29438;50.664;10.098;2023-02-02T06:19:13;2.00;94.40
43808;DHT22;29438;50.664;10.098;2023-02-02T06:21:39;2.00;94.40
43808;DHT22;29438;50.664;10.098;2023-02-02T06:24:05;1.90;94.40
43808;DHT22;29438;50.664;10.098;2023-02-02T06:26:30;1.90;94.40
43808;DHT22;29438;50.664;10.098;2023-02-02T06:28:56;1.90;94.40
43808;DHT22;29438;50.664;10.098;2023-02-02T06:31:22;1.90;94.50
43808;DHT22;29438;50.664;10.098;2023-02-02T06:33:52;1.90;94.50
43808;DHT22;29438;50.664;10.098;2023-02-02T06:36:18;1.90;94.50
43808;DHT22;29438;50.664;10.098;2023-02-02T06:38:48;2.30;94.70
43808;DHT22;29438;50.664;10.098;2023-02-02T06:41:13;2.20;94.40
43808;DHT22;29438;50.664;10.098;2023-02-02T06:43:39;2.00;94.20
43808;DHT22;29438;50.664;10.098;2023-02-02T06:46:04;1.80;94.10
43808;DHT22;29438;50.664;10.098;2023-02-02T06:48:30;1.70;94.10
43808;DHT22;29438;50.664;10.098;2023-02-02T06:50:58;1.70;94.10
43808;DHT22;29438;50.664;10.098;2023-02-02T06:53:24;1.60;94.10
43808;DHT22;29438;50.664;10.098;2023-02-02T06:56:04;1.50;94.10
43808;DHT22;29438;50.664;10.098;2023-02-02T06:58:31;1.50;94.10
43808;DHT22;29438;50.664;10.098;2023-02-02T07:01:02;1.50;94.20
43808;DHT22;29438;50.664;10.098;2023-02-02T07:03:28;1.50;94.20
43808;DHT22;29438;50.664;10.098;2023-02-02T07:05:54;1.50;94.30
43808;DHT22;29438;50.664;10.098;2023-02-02T07:08:19;1.50;94.30
43808;DHT22;29438;50.664;10.098;2023-02-02T07:10:45;1.50;94.30
43808;DHT22;29438;50.664;10.098;2023-02-02T07:13:11;1.40;94.40
43808;DHT22;29438;50.664;10.098;2023-02-02T07:15:40;1.40;94.40
43808;DHT22;29438;50.664;10.098;2023-02-02T07:18:05;1.40;94.30
43808;DHT22;29438;50.664;10.098;2023-02-02T07:20:31;1.50;94.40
43808;DHT22;29438;50.664;10.098;2023-02-02T07:22:57;1.40;94.40
43808;DHT22;29438;50.664;10.098;2023-02-02T07:25:22;1.50;94.50
43808;DHT22;29438;50.664;10.098;2023-02-02T07:27:52;1.40;94.40
43808;DHT22;29438;50.664;10.098;2023-02-02T07:30:18;1.40;94.40
43808;DHT22;29438;50.664;10.098;2023-02-02T07:32:48;1.30;94.40
43808;DHT22;29438;50.664;10.098;2023-02-02T07:35:14;1.40;94.40
43808;DHT22;29438;50.664;10.098;2023-02-02T07:37:40;1.30;94.40
43808;DHT22;29438;50.664;10.098;2023-02-02T07:40:06;1.30;94.40
43808;DHT22;29438;50.664;10.098;2023-02-02T07:42:32;1.40;94.40
43808;DHT22;29438;50.664;10.098;2023-02-02T07:44:57;1.40;94.40
43808;DHT22;29438;50.664;10.098;2023-02-02T07:47:24;1.30;94.30
43808;DHT22;29438;50.664;10.098;2023-02-02T07:49:49;1.40;94.30
43808;DHT22;29438;50.664;10.098;2023-02-02T07:52:15;1.30;94.20
43808;DHT22;29438;50.664;10.098;2023-02-02T07:54:41;1.30;94.20
43808;DHT22;29438;50.664;10.098;2023-02-02T07:57:06;1.20;94.20
43808;DHT22;29438;50.664;10.098;2023-02-02T07:59:32;1.20;94.20
43808;DHT22;29438;50.664;10.098;2023-02-02T08:01:57;1.20;94.20
43808;DHT22;29438;50.664;10.098;2023-02-02T08:04:23;1.10;94.20
43808;DHT22;29438;50.664;10.098;2023-02-02T08:06:48;1.00;94.20
43808;DHT22;29438;50.664;10.098;2023-02-02T08:09:14;1.10;94.30
43808;DHT22;29438;50.664;10.098;2023-02-02T08:11:39;1.10;94.30
43808;DHT22;29438;50.664;10.098;2023-02-02T08:14:05;1.10;94.30
43808;DHT22;29438;50.664;10.098;2023-02-02T08:16:32;1.10;94.30
43808;DHT22;29438;50.664;10.098;2023-02-02T08:18:58;1.10;94.30
43808;DHT22;29438;50.664;10.098;2023-02-02T08:21:24;1.00;94.30
43808;DHT22;29438;50.664;10.098;2023-02-02T08:23:51;1.00;94.30
43808;DHT22;29438;50.664;10.098;2023-02-02T08:26:22;1.10;94.30
43808;DHT22;29438;50.664;10.098;2023-02-02T08:28:52;1.00;94.30
43808;DHT22;29438;50.664;10.098;2023-02-02T08:31:29;1.10;94.30
43808;DHT22;29438;50.664;10.098;2023-02-02T08:33:55;1.10;94.40
43808;DHT22;29438;50.664;10.098;2023-02-02T08:36:23;1.20;94.40
43808;DHT22;29438;50.664;10.098;2023-02-02T08:38:50;1.20;94.30
43808;DHT22;29438;50.664;10.098;2023-02-02T08:41:22;1.20;94.30
43808;DHT22;29438;50.664;10.098;2023-02-02T08:43:48;1.20;94.30
43808;DHT22;29438;50.664;10.098;2023-02-02T08:46:16;1.20;94.20
43808;DHT22;29438;50.664;10.098;2023-02-02T08:48:42;1.10;94.20
43808;DHT22;29438;50.664;10.098;2023-02-02T08:51:10;1.20;94.20
43808;DHT22;29438;50.664;10.098;2023-02-02T08:53:36;1.20;94.20
43808;DHT22;29438;50.664;10.098;2023-02-02T08:56:04;1.20;94.10
43808;DHT22;29438;50.664;10.098;2023-02-02T08:58:31;1.30;94.10
43808;DHT22;29438;50.664;10.098;2023-02-02T09:01:04;1.40;94.10
43808;DHT22;29438;50.664;10.098;2023-02-02T09:03:30;1.30;94.00
43808;DHT22;29438;50.664;10.098;2023-02-02T09:05:56;1.30;93.90
43808;DHT22;29438;50.664;10.098;2023-02-02T09:08:21;1.40;93.90
43808;DHT22;29438;50.664;10.098;2023-02-02T09:10:47;1.40;93.80
43808;DHT22;29438;50.664;10.098;2023-02-02T09:13:12;1.40;93.70
43808;DHT22;29438;50.664;10.098;2023-02-02T09:15:38;1.40;93.60
43808;DHT22;29438;50.664;10.098;2023-02-02T09:18:03;1.50;93.60
43808;DHT22;29438;50.664;10.098;2023-02-02T09:20:29;1.50;93.30
43808;DHT22;29438;50.664;10.098;2023-02-02T09:22:55;1.50;93.20
43808;DHT22;29438;50.664;10.098;2023-02-02T09:25:21;1.60;93.20
43808;DHT22;29438;50.664;10.098;2023-02-02T09:27:49;1.60;92.90
43808;DHT22;29438;50.664;10.098;2023-02-02T09:30:14;1.70;92.90
43808;DHT22;29438;50.664;10.098;2023-02-02T09:32:40;1.70;92.90
43808;DHT22;29438;50.664;10.098;2023-02-02T09:35:06;1.80;92.80
43808;DHT22;29438;50.664;10.098;2023-02-02T09:37:33;1.80;92.70
43808;DHT22;29438;50.664;10.098;2023-02-02T09:39:59;1.90;92.60
43808;DHT22;29438;50.664;10.098;2023-02-02T09:45:46;2.00;92.20
43808;DHT22;29438;50.664;10.098;2023-02-02T09:48:28;1.90;92.00
43808;DHT22;29438;50.664;10.098;2023-02-02T09:50:58;1.80;91.90
43808;DHT22;29438;50.664;10.098;2023-02-02T09:53:44;1.80;91.90
43808;DHT22;29438;50.664;10.098;2023-02-02T09:56:26;1.80;92.10
43808;DHT22;29438;50.664;10.098;2023-02-02T09:58:54;1.90;92.00
43808;DHT22;29438;50.664;10.098;2023-02-02T10:01:30;1.80;91.80
43808;DHT22;29438;50.664;10.098;2023-02-02T10:04:05;1.80;91.90
43808;DHT22;29438;50.664;10.098;2023-02-02T10:06:48;1.80;92.00
43808;DHT22;29438;50.664;10.098;2023-02-02T10:14:40;2.00;92.00
43808;DHT22;29438;50.664;10.098;2023-02-02T10:19:49;2.20;91.30
43808;DHT22;29438;50.664;10.098;2023-02-02T10:22:21;2.20;91.20
43808;DHT22;29438;50.664;10.098;2023-02-02T10:24:47;2.30;91.10
43808;DHT22;29438;50.664;10.098;2023-02-02T10:27:15;2.30;90.80
43808;DHT22;29438;50.664;10.098;2023-02-02T10:29:55;2.30;90.70
43808;DHT22;29438;50.664;10.098;2023-02-02T10:32:28;2.50;90.70
43808;DHT22;29438;50.664;10.098;2023-02-02T10:35:15;2.60;90.50
43808;DHT22;29438;50.664;10.098;2023-02-02T10:37:52;2.60;90.30
43808;DHT22;29438;50.664;10.098;2023-02-02T10:45:36;2.50;90.10
43808;DHT22;29438;50.664;10.098;2023-02-02T10:48:13;2.50;89.80
43808;DHT22;29438;50.664;10.098;2023-02-02T10:50:42;2.40;89.60
43808;DHT22;29438;50.664;10.098;2023-02-02T10:53:13;2.20;90.20
43808;DHT22;29438;50.664;10.098;2023-02-02T10:55:47;2.10;90.60
43808;DHT22;29438;50.664;10.098;2023-02-02T10:58:31;2.10;90.80
43808;DHT22;29438;50.664;10.098;2023-02-02T11:01:00;2.00;91.10
43808;DHT22;29438;50.664;10.098;2023-02-02T11:03:32;2.00;91.40
43808;DHT22;29438;50.664;10.098;2023-02-02T11:05:59;2.10;91.50
43808;DHT22;29438;50.664;10.098;2023-02-02T11:08:46;2.20;91.40
43808;DHT22;29438;50.664;10.098;2023-02-02T11:11:25;2.30;91.10
43808;DHT22;29438;50.664;10.098;2023-02-02T11:16:33;2.40;90.80
43808;DHT22;29438;50.664;10.098;2023-02-02T11:18:59;2.40;90.70
43808;DHT22;29438;50.664;10.098;2023-02-02T11:21:26;2.40;90.90
43808;DHT22;29438;50.664;10.098;2023-02-02T11:23:59;2.60;90.70
43808;DHT22;29438;50.664;10.098;2023-02-02T11:26:26;2.70;90.60
43808;DHT22;29438;50.664;10.098;2023-02-02T11:28:54;2.80;90.40
43808;DHT22;29438;50.664;10.098;2023-02-02T11:31:30;2.80;90.30
43808;DHT22;29438;50.664;10.098;2023-02-02T11:34:08;2.80;90.00
43808;DHT22;29438;50.664;10.098;2023-02-02T11:36:34;3.00;89.80
43808;DHT22;29438;50.664;10.098;2023-02-02T11:39:20;3.00;89.40
43808;DHT22;29438;50.664;10.098;2023-02-02T11:41:45;2.90;89.10
43808;DHT22;29438;50.664;10.098;2023-02-02T11:44:22;2.80;89.10
43808;DHT22;29438;50.664;10.098;2023-02-02T11:46:49;2.90;89.30
43808;DHT22;29438;50.664;10.098;2023-02-02T11:49:18;3.00;89.10
43808;DHT22;29438;50.664;10.098;2023-02-02T11:51:58;3.10;88.90
43808;DHT22;29438;50.664;10.098;2023-02-02T11:54:30;3.20;88.70
43808;DHT22;29438;50.664;10.098;2023-02-02T11:56:59;3.20;88.40
43808;DHT22;29438;50.664;10.098;2023-02-02T12:02:24;3.00;88.10
43808;DHT22;29438;50.664;10.098;2023-02-02T12:04:54;3.00;88.30
43808;DHT22;29438;50.664;10.098;2023-02-02T12:07:26;3.20;88.40
43808;DHT22;29438;50.664;10.098;2023-02-02T12:09:52;3.60;88.30
43808;DHT22;29438;50.664;10.098;2023-02-02T12:12:44;3.50;87.00
43808;DHT22;29438;50.664;10.098;2023-02-02T12:18:34;3.70;87.20
43808;DHT22;29438;50.664;10.098;2023-02-02T12:21:07;3.90;87.20
43808;DHT22;29438;50.664;10.098;2023-02-02T12:32:03;3.40;87.50
43808;DHT22;29438;50.664;10.098;2023-02-02T12:34:46;3.30;87.60
43808;DHT22;29438;50.664;10.098;2023-02-02T12:42:51;3.20;87.70
43808;DHT22;29438;50.664;10.098;2023-02-02T12:48:03;3.30;87.80
43808;DHT22;29438;50.664;10.098;2023-02-02T12:50:59;3.20;87.90
43808;DHT22;29438;50.664;10.098;2023-02-02T12:56:20;3.40;88.00
43808;DHT22;29438;50.664;10.098;2023-02-02T12:59:16;3.40;87.80
43808;DHT22;29438;50.664;10.098;2023-02-02T13:02:07;3.40;87.70
43808;DHT22;29438;50.664;10.098;2023-02-02T13:04:40;3.40;87.70
43808;DHT22;29438;50.664;10.098;2023-02-02T13:07:36;3.50;87.90
43808;DHT22;29438;50.664;10.098;2023-02-02T13:13:04;3.40;87.70
43808;DHT22;29438;50.664;10.098;2023-02-02T13:15:37;3.50;87.80
43808;DHT22;29438;50.664;10.098;2023-02-02T13:18:14;3.40;87.60
43808;DHT22;29438;50.664;10.098;2023-02-02T13:20:52;3.30;87.90
43808;DHT22;29438;50.664;10.098;2023-02-02T13:23:24;3.10;88.10
43808;DHT22;29438;50.664;10.098;2023-02-02T13:26:05;3.00;88.60
43808;DHT22;29438;50.664;10.098;2023-02-02T13:28:40;2.80;89.00
43808;DHT22;29438;50.664;10.098;2023-02-02T13:31:21;2.90;89.30
43808;DHT22;29438;50.664;10.098;2023-02-02T13:33:55;2.90;89.30
43808;DHT22;29438;50.664;10.098;2023-02-02T13:36:28;2.80;89.20
43808;DHT22;29438;50.664;10.098;2023-02-02T13:38:57;2.80;89.50
43808;DHT22;29438;50.664;10.098;2023-02-02T13:41:24;2.80;89.60
43808;DHT22;29438;50.664;10.098;2023-02-02T13:43:56;2.80;89.70
43808;DHT22;29438;50.664;10.098;2023-02-02T13:46:47;2.90;89.80
43808;DHT22;29438;50.664;10.098;2023-02-02T13:52:01;3.00;89.30
43808;DHT22;29438;50.664;10.098;2023-02-02T13:57:45;2.90;89.20
43808;DHT22;29438;50.664;10.098;2023-02-02T14:00:30;2.90;89.40
43808;DHT22;29438;50.664;10.098;2023-02-02T14:03:01;2.80;89.60
43808;DHT22;29438;50.664;10.098;2023-02-02T14:05:33;2.80;89.70
43808;DHT22;29438;50.664;10.098;2023-02-02T14:08:19;3.00;89.70
43808;DHT22;29438;50.664;10.098;2023-02-02T14:13:21;3.00;89.50
43808;DHT22;29438;50.664;10.098;2023-02-02T14:16:18;2.90;89.40
43808;DHT22;29438;50.664;10.098;2023-02-02T14:18:51;2.80;89.40
43808;DHT22;29438;50.664;10.098;2023-02-02T14:31:59;2.50;90.60
43808;DHT22;29438;50.664;10.098;2023-02-02T14:34:38;2.60;90.70
43808;DHT22;29438;50.664;10.098;2023-02-02T14:45:37;3.20;90.50
43808;DHT22;29438;50.664;10.098;2023-02-02T14:56:08;3.20;90.10
43808;DHT22;29438;50.664;10.098;2023-02-02T15:06:44;2.60;90.70
43808;DHT22;29438;50.664;10.098;2023-02-02T15:31:43;2.20;91.80
43808;DHT22;29438;50.664;10.098;2023-02-02T15:34:16;2.10;91.90
43808;DHT22;29438;50.664;10.098;2023-02-02T15:36:46;2.10;92.00
43808;DHT22;29438;50.664;10.098;2023-02-02T15:41:51;1.90;92.30
43808;DHT22;29438;50.664;10.098;2023-02-02T15:44:37;1.90;92.40
43808;DHT22;29438;50.664;10.098;2023-02-02T15:47:06;1.80;92.60
43808;DHT22;29438;50.664;10.098;2023-02-02T15:49:34;1.70;92.80
43808;DHT22;29438;50.664;10.098;2023-02-02T15:52:09;1.70;92.80
43808;DHT22;29438;50.664;10.098;2023-02-02T15:54:35;1.60;92.90
43808;DHT22;29438;50.664;10.098;2023-02-02T15:57:33;1.60;93.10
43808;DHT22;29438;50.664;10.098;2023-02-02T16:00:45;1.60;93.20
43808;DHT22;29438;50.664;10.098;2023-02-02T16:02:47;1.60;93.20
43808;DHT22;29438;50.664;10.098;2023-02-02T16:08:02;1.60;93.40
43808;DHT22;29438;50.664;10.098;2023-02-02T16:10:28;1.70;93.50
43808;DHT22;29438;50.664;10.098;2023-02-02T16:12:54;1.80;93.60
43808;DHT22;29438;50.664;10.098;2023-02-02T16:15:27;2.10;93.80
43808;DHT22;29438;50.664;10.098;2023-02-02T16:18:10;1.90;93.40
43808;DHT22;29438;50.664;10.098;2023-02-02T16:20:38;1.70;93.30
43808;DHT22;29438;50.664;10.098;2023-02-02T16:23:12;1.60;93.30
43808;DHT22;29438;50.664;10.098;2023-02-02T16:25:45;1.50;93.40
43808;DHT22;29438;50.664;10.098;2023-02-02T16:28:13;1.50;93.50
43808;DHT22;29438;50.664;10.098;2023-02-02T16:30:41;1.50;93.60
43808;DHT22;29438;50.664;10.098;2023-02-02T16:33:29;1.50;93.60
43808;DHT22;29438;50.664;10.098;2023-02-02T16:35:57;1.50;93.70
43808;DHT22;29438;50.664;10.098;2023-02-02T16:40:49;1.60;93.70
43808;DHT22;29438;50.664;10.098;2023-02-02T16:43:25;1.60;93.80
43808;DHT22;29438;50.664;10.098;2023-02-02T16:45:59;1.60;93.90
43808;DHT22;29438;50.664;10.098;2023-02-02T16:53:40;1.60;93.90
43808;DHT22;29438;50.664;10.098;2023-02-02T16:56:06;1.60;94.00
43808;DHT22;29438;50.664;10.098;2023-02-02T16:58:38;1.60;94.00
43808;DHT22;29438;50.664;10.098;2023-02-02T17:01:10;1.60;94.00
43808;DHT22;29438;50.664;10.098;2023-02-02T17:03:38;1.60;94.10
43808;DHT22;29438;50.664;10.098;2023-02-02T17:06:05;1.60;94.10
43808;DHT22;29438;50.664;10.098;2023-02-02T17:08:33;1.60;94.10
43808;DHT22;29438;50.664;10.098;2023-02-02T17:16:00;1.50;94.20
43808;DHT22;29438;50.664;10.098;2023-02-02T17:18:26;1.50;94.30
43808;DHT22;29438;50.664;10.098;2023-02-02T17:20:54;1.40;94.30
43808;DHT22;29438;50.664;10.098;2023-02-02T17:23:29;1.40;94.40
43808;DHT22;29438;50.664;10.098;2023-02-02T17:25:54;1.40;94.40
43808;DHT22;29438;50.664;10.098;2023-02-02T17:28:23;1.40;94.40
43808;DHT22;29438;50.664;10.098;2023-02-02T17:31:00;1.40;94.50
43808;DHT22;29438;50.664;10.098;2023-02-02T17:33:27;1.40;94.50
43808;DHT22;29438;50.664;10.098;2023-02-02T17:35:52;1.50;94.50
43808;DHT22;29438;50.664;10.098;2023-02-02T17:38:19;1.50;94.60
43808;DHT22;29438;50.664;10.098;2023-02-02T17:40:46;1.50;94.60
43808;DHT22;29438;50.664;10.098;2023-02-02T17:43:12;1.50;94.60
43808;DHT22;29438;50.664;10.098;2023-02-02T17:45:37;1.40;94.60
43808;DHT22;29438;50.664;10.098;2023-02-02T17:48:04;1.40;94.70
43808;DHT22;29438;50.664;10.098;2023-02-02T17:50:31;1.40;94.70
43808;DHT22;29438;50.664;10.098;2023-02-02T17:52:57;1.50;94.70
43808;DHT22;29438;50.664;10.098;2023-02-02T17:55:33;1.50;94.70
43808;DHT22;29438;50.664;10.098;2023-02-02T17:58:00;1.50;94.70
43808;DHT22;29438;50.664;10.098;2023-02-02T18:00:26;1.50;94.80
43808;DHT22;29438;50.664;10.098;2023-02-02T18:02:55;1.50;94.80
43808;DHT22;29438;50.664;10.098;2023-02-02T18:05:22;1.50;94.80
43808;DHT22;29438;50.664;10.098;2023-02-02T18:07:48;1.60;94.70
43808;DHT22;29438;50.664;10.098;2023-02-02T18:10:14;1.60;94.80
43808;DHT22;29438;50.664;10.098;2023-02-02T18:12:40;1.60;94.80